MSC Carolina — 3ECV5 — position and weather

sailwx.info

Track history (hours):
 
Tides and Currents Weather Stations Pressure Air Temp Water Temp Dewpoint Dewpoint Depression Visibility Wind Speed Wind Dir Waves Ship Positions

MSC Carolina

Last reported at 2016-May-29 18:31 UTC. Time now 2016-May-29 19:15 UTC.
Position S 20°09' E 057°29'.

Length 275 m; draft 12.9 m.

Type: Ship (hazmat cat B). MMSI: 371475000.

Date/timePositionNaut miles runAvg speedWind from/ knotsBaromVisibWave heightAir tempDewpointWater temp
2016-May-29 18:31S 20°09' E 057°29'0 0.0
2016-May-29 17:31S 20°09' E 057°29'0 0.0
2016-May-29 16:31S 20°09' E 057°29'0 0.0
2016-May-29 15:31S 20°09' E 057°29'0 0.0
2016-May-29 14:31S 20°09' E 057°29'0 0.0
2016-May-29 13:28S 20°09' E 057°29'0 0.0
2016-May-29 12:34S 20°09' E 057°29'0 0.0
2016-May-29 11:34S 20°09' E 057°29'0 0.0
2016-May-29 10:33S 20°09' E 057°29'0 0.0
2016-May-29 09:33S 20°09' E 057°29'0 0.0
2016-May-29 08:33S 20°09' E 057°29'0 0.0
2016-May-29 07:33S 20°09' E 057°29'0 0.0
2016-May-29 04:33S 20°09' E 057°29'0 0.3
2016-May-29 03:33S 20°08' E 057°29'3 2.7
2016-May-29 02:33S 20°07' E 057°27'1 0.9
2016-May-29 01:33S 20°06' E 057°26'2 2.0
2016-May-29 00:33S 20°06' E 057°24'3 3.3
2016-May-28 23:33S 20°06' E 057°20'4 3.6
2016-May-28 22:33S 20°05' E 057°17'1 0.9
2016-May-28 21:33S 20°05' E 057°18'1 1.0
2016-May-28 20:33S 20°05' E 057°18'1 0.9
2016-May-28 19:33S 20°05' E 057°19'1 1.0
2016-May-28 18:33S 20°04' E 057°20'1 1.2
2016-May-28 17:33S 20°04' E 057°21'1 1.3
2016-May-28 16:33S 20°03' E 057°23'1 1.0
2016-May-28 15:33S 20°04' E 057°24'1 0.8
2016-May-28 14:33S 20°04' E 057°24'4 3.6
2016-May-28 13:34S 20°07' E 057°22'3 2.7
2016-May-28 12:32S 20°07' E 057°19'1 1.2
2016-May-28 11:33S 20°06' E 057°20'1 1.2
2016-May-28 10:33S 20°05' E 057°21'1 1.2
2016-May-28 09:33S 20°05' E 057°22'1 1.1
2016-May-28 08:33S 20°05' E 057°23'1 1.0
2016-May-28 07:33S 20°05' E 057°24'2 2.0
2016-May-28 06:33S 20°07' E 057°23'1110.8
2016-May-28 05:33S 20°11' E 057°12'  
Track history (hours):
 
Tides and Currents Weather Stations Pressure Air Temp Water Temp Dewpoint Dewpoint Depression Visibility Wind Speed Wind Dir Waves Ship Positions

MSC Carolina

Last reported at 2016-May-29 18:31 UTC. Time now 2016-May-29 19:15 UTC.
Position S 20°09' E 057°29'.

Length 275 m; draft 12.9 m.

Type: Ship (hazmat cat B). MMSI: 371475000.

Date/timePositionNaut miles runAvg speedWind from/ knotsBaromVisibWave heightAir tempDewpointWater temp
2016-May-29 18:31S 20°09' E 057°29'0 0.0
2016-May-29 17:31S 20°09' E 057°29'0 0.0
2016-May-29 16:31S 20°09' E 057°29'0 0.0
2016-May-29 15:31S 20°09' E 057°29'0 0.0
2016-May-29 14:31S 20°09' E 057°29'0 0.0
2016-May-29 13:28S 20°09' E 057°29'0 0.0
2016-May-29 12:34S 20°09' E 057°29'0 0.0
2016-May-29 11:34S 20°09' E 057°29'0 0.0
2016-May-29 10:33S 20°09' E 057°29'0 0.0
2016-May-29 09:33S 20°09' E 057°29'0 0.0
2016-May-29 08:33S 20°09' E 057°29'0 0.0
2016-May-29 07:33S 20°09' E 057°29'0 0.0
2016-May-29 04:33S 20°09' E 057°29'0 0.3
2016-May-29 03:33S 20°08' E 057°29'3 2.7
2016-May-29 02:33S 20°07' E 057°27'1 0.9
2016-May-29 01:33S 20°06' E 057°26'2 2.0
2016-May-29 00:33S 20°06' E 057°24'3 3.3
2016-May-28 23:33S 20°06' E 057°20'4 3.6
2016-May-28 22:33S 20°05' E 057°17'1 0.9
2016-May-28 21:33S 20°05' E 057°18'1 1.0
2016-May-28 20:33S 20°05' E 057°18'1 0.9
2016-May-28 19:33S 20°05' E 057°19'1 1.0
2016-May-28 18:33S 20°04' E 057°20'1 1.2
2016-May-28 17:33S 20°04' E 057°21'1 1.3
2016-May-28 16:33S 20°03' E 057°23'1 1.0
2016-May-28 15:33S 20°04' E 057°24'1 0.8
2016-May-28 14:33S 20°04' E 057°24'4 3.6
2016-May-28 13:34S 20°07' E 057°22'3 2.7
2016-May-28 12:32S 20°07' E 057°19'1 1.2
2016-May-28 11:33S 20°06' E 057°20'1 1.2
2016-May-28 10:33S 20°05' E 057°21'1 1.2
2016-May-28 09:33S 20°05' E 057°22'1 1.1
2016-May-28 08:33S 20°05' E 057°23'1 1.0
2016-May-28 07:33S 20°05' E 057°24'2 2.0
2016-May-28 06:33S 20°07' E 057°23'1110.8
2016-May-28 05:33S 20°11' E 057°12'  

Dump ship's entire track history